createdAt,value
2022-10-05T00:00:14.460Z,18.69
2022-10-05T00:02:41.463Z,18.75
2022-10-05T00:05:30.968Z,18.77
2022-10-05T00:08:04.920Z,18.73
2022-10-05T00:10:31.496Z,18.72
2022-10-05T00:12:58.370Z,18.67
2022-10-05T00:15:25.027Z,18.57
2022-10-05T00:17:51.608Z,18.54
2022-10-05T00:20:18.429Z,18.50
2022-10-05T00:22:48.256Z,18.49
2022-10-05T00:25:20.990Z,18.44
2022-10-05T00:28:00.382Z,18.46
2022-10-05T00:30:32.467Z,18.41
2022-10-05T00:32:59.987Z,18.38
2022-10-05T00:35:29.370Z,18.40
2022-10-05T00:37:57.767Z,18.44
2022-10-05T00:40:33.794Z,18.43
2022-10-05T00:43:15.544Z,18.42
2022-10-05T00:45:56.605Z,18.41
2022-10-05T00:48:55.529Z,18.34
2022-10-05T00:51:28.468Z,18.30
2022-10-05T00:54:09.319Z,18.29
2022-10-05T00:56:57.324Z,18.33
2022-10-05T00:59:40.201Z,18.33
2022-10-05T01:02:24.571Z,18.24
2022-10-05T01:04:56.565Z,18.21
2022-10-05T01:07:35.252Z,18.19
2022-10-05T01:10:39.563Z,18.26
2022-10-05T01:13:29.586Z,18.36
2022-10-05T01:16:17.794Z,18.37
2022-10-05T01:18:53.950Z,18.19
2022-10-05T01:21:26.679Z,18.19
2022-10-05T01:24:18.272Z,18.21
2022-10-05T01:27:03.110Z,18.18
2022-10-05T01:29:41.842Z,18.06
2022-10-05T01:32:23.929Z,18.10
2022-10-05T01:35:02.427Z,18.09
2022-10-05T01:37:51.352Z,18.12
2022-10-05T01:40:38.599Z,18.10
2022-10-05T01:43:08.103Z,18.07
2022-10-05T01:45:49.182Z,18.05
2022-10-05T01:48:37.126Z,17.97
2022-10-05T01:51:28.563Z,18.04
2022-10-05T01:54:14.044Z,18.01
2022-10-05T01:56:40.647Z,17.87
2022-10-05T01:59:18.072Z,17.91
2022-10-05T02:02:05.227Z,17.92
2022-10-05T02:05:01.556Z,17.89
2022-10-05T02:07:54.349Z,17.88
2022-10-05T02:10:25.014Z,17.99
2022-10-05T02:12:59.394Z,18.06
2022-10-05T02:15:31.628Z,18.01
2022-10-05T02:18:03.408Z,17.84
2022-10-05T02:20:34.561Z,17.81
2022-10-05T02:23:07.491Z,17.89
2022-10-05T02:25:39.931Z,17.90
2022-10-05T02:28:18.723Z,17.91
2022-10-05T02:30:52.692Z,17.91
2022-10-05T02:33:27.636Z,17.91
2022-10-05T02:35:55.833Z,17.88
2022-10-05T02:38:36.726Z,17.83
2022-10-05T02:41:12.297Z,17.78
2022-10-05T02:43:57.200Z,17.76
2022-10-05T02:47:07.328Z,17.75
2022-10-05T02:50:00.537Z,17.75
2022-10-05T02:52:34.915Z,17.63
2022-10-05T02:55:24.778Z,17.64
2022-10-05T02:58:13.695Z,17.62
2022-10-05T03:00:48.024Z,17.63
2022-10-05T03:03:31.028Z,17.65
2022-10-05T03:06:03.858Z,17.64
2022-10-05T03:08:46.944Z,17.56
2022-10-05T03:11:16.480Z,17.58
2022-10-05T03:14:09.352Z,17.59
2022-10-05T03:17:00.902Z,17.55
2022-10-05T03:19:55.742Z,17.55
2022-10-05T03:22:45.624Z,17.54
2022-10-05T03:25:38.046Z,17.66
2022-10-05T03:28:17.894Z,17.59
2022-10-05T03:30:55.301Z,17.60
2022-10-05T03:33:42.962Z,17.61
2022-10-05T03:36:24.779Z,17.48
2022-10-05T03:39:17.735Z,17.51
2022-10-05T03:42:10.483Z,17.39
2022-10-05T03:44:44.433Z,17.27
2022-10-05T03:47:25.361Z,17.33
2022-10-05T03:50:10.448Z,17.25
2022-10-05T03:52:44.309Z,17.26
2022-10-05T03:55:20.217Z,17.35
2022-10-05T03:57:48.831Z,17.39
2022-10-05T04:00:20.086Z,17.38
2022-10-05T04:02:46.838Z,17.40
2022-10-05T04:05:24.771Z,17.43
2022-10-05T04:07:58.709Z,17.38
2022-10-05T04:10:53.344Z,17.33
2022-10-05T04:13:35.651Z,17.30
2022-10-05T04:16:31.722Z,17.36
2022-10-05T04:19:23.575Z,17.42
2022-10-05T04:22:11.770Z,17.32
2022-10-05T04:25:01.522Z,17.32
2022-10-05T04:27:39.388Z,17.39
2022-10-05T04:30:18.800Z,17.34
2022-10-05T04:32:50.059Z,17.33
2022-10-05T04:35:41.325Z,17.45
2022-10-05T04:38:35.871Z,17.41
2022-10-05T04:41:16.654Z,17.30
2022-10-05T04:43:49.311Z,17.21
2022-10-05T04:46:57.896Z,17.19
2022-10-05T04:49:45.825Z,17.15
2022-10-05T04:52:24.467Z,17.17
2022-10-05T04:55:10.135Z,17.25
2022-10-05T04:58:15.557Z,17.20
2022-10-05T05:01:12.814Z,17.16
2022-10-05T05:04:23.509Z,17.16
2022-10-05T05:06:56.458Z,17.13
2022-10-05T05:10:04.020Z,17.08
2022-10-05T05:12:36.616Z,17.10
2022-10-05T05:15:41.921Z,17.09
2022-10-05T05:18:39.575Z,17.02
2022-10-05T05:21:34.360Z,17.02
2022-10-05T05:24:20.913Z,16.95
2022-10-05T05:27:10.091Z,16.96
2022-10-05T05:30:01.512Z,16.89
2022-10-05T05:32:52.934Z,16.85
2022-10-05T05:35:37.972Z,16.94
2022-10-05T05:38:16.948Z,16.92
2022-10-05T05:41:10.086Z,16.90
2022-10-05T05:43:46.201Z,16.89
2022-10-05T05:46:44.770Z,16.92
2022-10-05T05:49:39.873Z,16.90
2022-10-05T05:52:24.563Z,16.88
2022-10-05T05:55:00.369Z,16.87
2022-10-05T05:57:38.481Z,16.94
2022-10-05T06:00:20.648Z,16.93
2022-10-05T06:03:26.758Z,16.97
2022-10-05T06:06:04.357Z,17.00
2022-10-05T06:08:53.079Z,17.03
2022-10-05T06:11:31.700Z,17.06
2022-10-05T06:14:04.492Z,17.11
2022-10-05T06:16:53.941Z,17.17
2022-10-05T06:19:23.874Z,17.20
2022-10-05T06:22:23.857Z,17.26
2022-10-05T06:24:59.650Z,17.31
2022-10-05T06:28:03.782Z,17.35
2022-10-05T06:31:06.088Z,17.41
2022-10-05T06:33:52.561Z,17.44
2022-10-05T06:36:40.255Z,17.54
2022-10-05T06:39:31.922Z,17.55
2022-10-05T06:42:27.069Z,17.65
2022-10-05T06:45:11.835Z,17.67
2022-10-05T06:47:44.362Z,17.78
2022-10-05T06:50:28.953Z,17.83
2022-10-05T06:53:07.736Z,17.80
2022-10-05T06:56:04.504Z,17.88
2022-10-05T06:58:48.861Z,17.93
2022-10-05T07:02:00.667Z,18.07
2022-10-05T07:04:36.957Z,18.13
2022-10-05T07:07:31.082Z,18.19
2022-10-05T07:10:22.818Z,18.27
2022-10-05T07:13:01.896Z,18.34
2022-10-05T07:16:03.865Z,18.44
2022-10-05T07:18:49.181Z,18.47
2022-10-05T07:21:39.940Z,18.57
2022-10-05T07:24:23.858Z,18.73
2022-10-05T07:27:18.925Z,18.73
2022-10-05T07:30:10.615Z,18.72
2022-10-05T07:33:09.347Z,18.80
2022-10-05T07:36:01.065Z,18.80
2022-10-05T07:38:42.455Z,18.85
2022-10-05T07:41:26.194Z,18.89
2022-10-05T07:44:08.864Z,18.95
2022-10-05T07:46:55.469Z,19.04
2022-10-05T07:49:53.492Z,19.08
2022-10-05T07:52:25.130Z,19.14
2022-10-05T07:55:05.976Z,19.20
2022-10-05T07:58:07.838Z,19.24
2022-10-05T08:01:00.545Z,19.26
2022-10-05T08:03:34.707Z,19.31
2022-10-05T08:06:05.749Z,19.38
2022-10-05T08:08:41.213Z,19.40
2022-10-05T08:11:17.583Z,19.48
2022-10-05T08:13:56.368Z,19.51
2022-10-05T08:16:30.766Z,19.60
2022-10-05T08:19:00.748Z,19.59
2022-10-05T08:21:39.408Z,19.66
2022-10-05T08:24:11.127Z,19.71
2022-10-05T08:27:02.772Z,19.76
2022-10-05T08:29:47.926Z,19.86
2022-10-05T08:32:22.768Z,19.92
2022-10-05T08:34:59.443Z,20.00
2022-10-05T08:37:38.996Z,20.05
2022-10-05T08:40:36.875Z,20.11
2022-10-05T08:43:18.641Z,20.15
2022-10-05T08:46:17.807Z,20.23
2022-10-05T08:49:23.653Z,20.37
2022-10-05T08:51:56.717Z,20.48
2022-10-05T08:54:46.757Z,20.63
2022-10-05T08:57:19.431Z,20.79
2022-10-05T09:00:03.716Z,20.92
2022-10-05T09:02:36.558Z,21.00
2022-10-05T09:05:38.797Z,21.14
2022-10-05T09:08:23.728Z,21.27
2022-10-05T09:11:14.876Z,21.40
2022-10-05T09:13:53.823Z,21.49
2022-10-05T09:16:45.743Z,21.61
2022-10-05T09:19:24.530Z,21.79
2022-10-05T09:22:15.851Z,21.91
2022-10-05T09:24:57.570Z,22.02
2022-10-05T09:27:49.456Z,22.13
2022-10-05T09:30:29.012Z,22.27
2022-10-05T09:37:09.476Z,22.54
2022-10-05T09:39:46.616Z,22.56
2022-10-05T09:42:38.225Z,22.72
2022-10-05T09:45:23.347Z,22.86
2022-10-05T09:48:13.404Z,23.09
2022-10-05T09:51:11.155Z,23.27
2022-10-05T09:54:02.329Z,23.46
2022-10-05T09:56:50.427Z,23.63
2022-10-05T10:00:00.769Z,23.76
2022-10-05T10:02:50.530Z,23.98
2022-10-05T10:05:39.371Z,24.01
2022-10-05T10:08:06.199Z,24.12
2022-10-05T10:11:02.294Z,24.38
2022-10-05T10:13:57.388Z,24.56
2022-10-05T10:16:27.048Z,24.69
2022-10-05T10:19:22.769Z,24.93
2022-10-05T10:21:56.738Z,25.12
2022-10-05T10:24:42.087Z,25.15
2022-10-05T10:27:24.247Z,25.30
2022-10-05T10:30:04.490Z,25.35
2022-10-05T10:32:37.052Z,25.46
2022-10-05T10:35:25.404Z,25.70
2022-10-05T10:38:14.138Z,25.92
2022-10-05T10:41:01.017Z,25.88
2022-10-05T10:43:43.928Z,25.95
2022-10-05T10:46:35.642Z,26.19
2022-10-05T10:49:20.493Z,26.37
2022-10-05T10:52:31.971Z,26.04
2022-10-05T10:55:43.228Z,26.18
2022-10-05T10:58:47.453Z,26.36
2022-10-05T11:04:37.475Z,26.57
2022-10-05T11:07:25.175Z,26.75
2022-10-05T11:10:10.156Z,27.01
2022-10-05T11:13:12.951Z,26.83
2022-10-05T11:15:57.651Z,27.09
2022-10-05T11:18:29.747Z,27.08
2022-10-05T11:20:59.231Z,26.64
2022-10-05T11:23:57.536Z,26.18
2022-10-05T11:26:45.463Z,25.95
2022-10-05T11:29:32.578Z,25.95
2022-10-05T11:32:02.366Z,25.78
2022-10-05T11:35:04.555Z,25.65
2022-10-05T11:37:59.358Z,25.55
2022-10-05T11:40:50.418Z,25.54
2022-10-05T11:43:23.483Z,25.60
2022-10-05T11:46:20.247Z,25.54
2022-10-05T11:49:02.160Z,25.28
2022-10-05T11:51:41.398Z,25.33
2022-10-05T11:54:26.976Z,25.31
2022-10-05T11:57:04.041Z,25.14
2022-10-05T11:59:39.729Z,25.14
2022-10-05T12:02:06.341Z,25.01
2022-10-05T12:04:35.954Z,25.04
2022-10-05T12:07:09.416Z,25.05
2022-10-05T12:10:02.090Z,25.04
2022-10-05T12:12:35.973Z,25.01
2022-10-05T12:15:18.228Z,24.87
2022-10-05T12:17:53.157Z,24.76
2022-10-05T12:20:39.344Z,24.79
2022-10-05T12:23:28.151Z,24.78
2022-10-05T12:26:07.941Z,24.74
2022-10-05T12:28:52.322Z,24.67
2022-10-05T12:31:30.769Z,24.65
2022-10-05T12:34:03.012Z,24.67
2022-10-05T12:37:03.173Z,24.57
2022-10-05T12:39:47.817Z,24.58
2022-10-05T12:42:14.437Z,24.55
2022-10-05T12:44:59.503Z,24.61
2022-10-05T12:47:45.041Z,24.57
2022-10-05T12:50:18.342Z,24.50
2022-10-05T12:53:11.319Z,24.48
2022-10-05T12:55:51.745Z,24.53
2022-10-05T12:58:46.285Z,24.45
2022-10-05T13:01:50.957Z,24.47
2022-10-05T13:04:42.075Z,24.50
2022-10-05T13:07:20.889Z,24.54
2022-10-05T13:09:53.457Z,24.47
2022-10-05T13:12:48.122Z,24.50
2022-10-05T13:15:31.746Z,24.54
2022-10-05T13:18:19.821Z,24.51
2022-10-05T13:21:01.261Z,24.52
2022-10-05T13:23:35.021Z,24.48
2022-10-05T13:26:06.528Z,24.51
2022-10-05T13:28:49.232Z,24.48
2022-10-05T13:31:24.789Z,24.45
2022-10-05T13:34:05.112Z,24.50
2022-10-05T13:36:46.697Z,24.40
2022-10-05T13:39:49.402Z,24.46
2022-10-05T13:42:26.092Z,24.47
2022-10-05T13:44:55.877Z,24.50
2022-10-05T13:47:42.327Z,24.49
2022-10-05T13:50:24.838Z,24.46
2022-10-05T13:53:29.798Z,24.43
2022-10-05T13:56:00.739Z,24.44
2022-10-05T13:58:46.370Z,24.38
2022-10-05T14:01:18.882Z,24.40
2022-10-05T14:04:35.171Z,24.38
2022-10-05T14:07:23.672Z,24.36
2022-10-05T14:09:50.372Z,24.35
2022-10-05T14:12:22.741Z,24.36
2022-10-05T14:14:56.969Z,24.39
2022-10-05T14:17:29.165Z,24.44
2022-10-05T14:20:02.806Z,24.37
2022-10-05T14:22:29.588Z,24.41
2022-10-05T14:25:03.259Z,24.39
2022-10-05T14:27:33.341Z,24.32
2022-10-05T14:30:17.078Z,24.37
2022-10-05T14:32:52.769Z,24.34
2022-10-05T14:35:25.477Z,24.29
2022-10-05T14:38:00.534Z,24.35
2022-10-05T14:40:32.297Z,24.37
2022-10-05T14:43:17.130Z,24.38
2022-10-05T14:46:23.327Z,24.34
2022-10-05T14:49:14.217Z,24.32
2022-10-05T14:51:42.911Z,24.38
2022-10-05T14:54:30.405Z,24.32
2022-10-05T14:57:15.418Z,24.32
2022-10-05T15:00:02.209Z,24.25
2022-10-05T15:02:56.794Z,24.31
2022-10-05T15:05:35.593Z,24.28
2022-10-05T15:08:08.827Z,24.30
2022-10-05T15:10:49.877Z,24.29
2022-10-05T15:13:24.266Z,24.21
2022-10-05T15:16:04.120Z,24.28
2022-10-05T15:18:57.842Z,24.28
2022-10-05T15:21:54.485Z,24.29
2022-10-05T15:24:26.427Z,24.25
2022-10-05T15:26:57.829Z,24.23
2022-10-05T15:29:35.245Z,24.26
2022-10-05T15:32:23.531Z,24.20
2022-10-05T15:35:29.947Z,24.17
2022-10-05T15:38:02.646Z,24.18
2022-10-05T15:40:54.918Z,24.18
2022-10-05T15:43:24.174Z,24.18
2022-10-05T15:46:06.431Z,24.14
2022-10-05T15:48:49.304Z,24.09
2022-10-05T15:51:30.617Z,24.11
2022-10-05T15:54:53.419Z,24.08
2022-10-05T15:57:52.589Z,24.03
2022-10-05T16:00:22.217Z,24.03
2022-10-05T16:03:08.716Z,24.02
2022-10-05T16:05:57.647Z,23.98
2022-10-05T16:08:54.115Z,23.97
2022-10-05T16:11:52.735Z,23.95
2022-10-05T16:14:42.046Z,23.93
2022-10-05T16:17:21.310Z,23.91
2022-10-05T16:19:53.942Z,23.88
2022-10-05T16:22:45.078Z,23.90
2022-10-05T16:25:31.148Z,23.83
2022-10-05T16:28:16.445Z,23.85
2022-10-05T16:31:00.193Z,23.78
2022-10-05T16:33:54.425Z,23.73
2022-10-05T16:36:27.165Z,23.71
2022-10-05T16:39:03.607Z,23.74
2022-10-05T16:41:43.502Z,23.71
2022-10-05T16:44:31.958Z,23.65
2022-10-05T16:47:28.302Z,23.60
2022-10-05T16:50:19.742Z,23.55
2022-10-05T16:53:09.576Z,23.56
2022-10-05T16:55:42.222Z,23.58
2022-10-05T16:58:17.590Z,23.51
2022-10-05T17:03:54.684Z,23.46
2022-10-05T17:06:27.655Z,23.37
2022-10-05T17:09:32.083Z,23.36
2022-10-05T17:12:29.555Z,23.30
2022-10-05T17:15:25.862Z,23.23
2022-10-05T17:18:23.993Z,23.18
2022-10-05T17:21:21.462Z,23.18
2022-10-05T17:24:18.383Z,23.15
2022-10-05T17:27:12.792Z,23.11
2022-10-05T17:29:47.728Z,23.00
2022-10-05T17:32:17.305Z,23.03
2022-10-05T17:35:18.179Z,22.98
2022-10-05T17:38:14.418Z,22.92
2022-10-05T17:41:01.177Z,22.90
2022-10-05T17:43:35.305Z,22.85
2022-10-05T17:46:09.036Z,22.77
2022-10-05T17:48:47.247Z,22.77
2022-10-05T17:51:48.603Z,22.64
2022-10-05T17:54:44.495Z,22.64
2022-10-05T17:57:11.042Z,22.52
2022-10-05T17:59:47.001Z,22.49
2022-10-05T18:02:21.006Z,22.49
2022-10-05T18:05:12.476Z,22.47
2022-10-05T18:07:42.054Z,22.41
2022-10-05T18:10:11.824Z,22.44
2022-10-05T18:13:29.928Z,22.39
2022-10-05T18:15:56.733Z,22.39
2022-10-05T18:18:54.698Z,22.39
2022-10-05T18:21:37.099Z,22.34
2022-10-05T18:24:14.248Z,22.28
2022-10-05T18:26:54.629Z,22.24
2022-10-05T18:30:02.757Z,22.25
2022-10-05T18:32:51.097Z,22.22
2022-10-05T18:35:39.558Z,22.12
2022-10-05T18:38:19.301Z,22.12
2022-10-05T18:40:58.233Z,22.02
2022-10-05T18:43:45.699Z,22.02
2022-10-05T18:46:25.142Z,21.98
2022-10-05T18:48:57.551Z,21.93
2022-10-05T18:51:52.850Z,21.90
2022-10-05T18:54:43.636Z,21.92
2022-10-05T18:57:52.556Z,21.75
2022-10-05T19:00:54.419Z,21.71
2022-10-05T19:03:46.552Z,21.67
2022-10-05T19:06:30.243Z,21.68
2022-10-05T19:08:56.919Z,21.66
2022-10-05T19:11:29.925Z,21.65
2022-10-05T19:14:19.869Z,21.58
2022-10-05T19:17:12.332Z,21.52
2022-10-05T19:19:38.970Z,21.47
2022-10-05T19:22:25.205Z,21.48
2022-10-05T19:25:14.887Z,21.41
2022-10-05T19:28:20.585Z,21.30
2022-10-05T19:31:02.898Z,21.26
2022-10-05T19:34:07.273Z,21.22
2022-10-05T19:36:55.809Z,21.17
2022-10-05T19:39:41.423Z,21.15
2022-10-05T19:42:26.737Z,21.13
2022-10-05T19:45:24.652Z,21.08
2022-10-05T19:48:13.600Z,21.06
2022-10-05T19:50:56.338Z,21.08
2022-10-05T19:53:35.170Z,21.00
2022-10-05T19:56:33.712Z,20.92
2022-10-05T19:59:13.875Z,20.87
2022-10-05T20:01:50.095Z,20.83
2022-10-05T20:04:44.834Z,20.88
2022-10-05T20:07:20.728Z,20.86
2022-10-05T20:09:59.093Z,20.85
2022-10-05T20:12:51.995Z,20.87
2022-10-05T20:15:53.358Z,20.88
2022-10-05T20:19:03.645Z,20.89
2022-10-05T20:21:47.049Z,20.80
2022-10-05T20:24:26.035Z,20.80
2022-10-05T20:27:02.608Z,20.69
2022-10-05T20:29:33.680Z,20.61
2022-10-05T20:32:04.597Z,20.55
2022-10-05T20:34:33.042Z,20.59
2022-10-05T20:37:00.797Z,20.49
2022-10-05T20:39:29.543Z,20.49
2022-10-05T20:41:58.490Z,20.43
2022-10-05T20:44:26.341Z,20.38
2022-10-05T20:46:57.693Z,20.40
2022-10-05T20:49:27.233Z,20.34
2022-10-05T20:51:56.246Z,20.31
2022-10-05T20:54:24.584Z,20.37
2022-10-05T20:56:53.208Z,20.36
2022-10-05T20:59:19.936Z,20.27
2022-10-05T21:01:50.355Z,20.24
2022-10-05T21:04:18.743Z,20.25
2022-10-05T21:06:46.353Z,20.24
2022-10-05T21:09:18.392Z,20.22
2022-10-05T21:11:54.629Z,20.23
2022-10-05T21:14:22.861Z,20.24
2022-10-05T21:16:50.490Z,20.27
2022-10-05T21:19:17.481Z,20.17
2022-10-05T21:21:45.940Z,20.18
2022-10-05T21:24:14.304Z,20.17
2022-10-05T21:26:41.949Z,20.12
2022-10-05T21:29:12.506Z,20.11
2022-10-05T21:31:42.306Z,20.04
2022-10-05T21:34:09.048Z,20.03
2022-10-05T21:36:35.844Z,20.05
2022-10-05T21:39:02.598Z,20.10
2022-10-05T21:41:29.305Z,19.98
2022-10-05T21:43:56.621Z,20.00
2022-10-05T21:46:27.421Z,19.93
2022-10-05T21:48:56.288Z,19.83
2022-10-05T21:51:25.113Z,19.79
2022-10-05T21:54:06.265Z,19.79
2022-10-05T21:56:36.163Z,19.78
2022-10-05T21:59:09.602Z,19.78
2022-10-05T22:01:36.758Z,19.80
2022-10-05T22:04:07.199Z,19.81
2022-10-05T22:06:35.470Z,19.77
2022-10-05T22:09:02.588Z,19.82
2022-10-05T22:11:29.292Z,19.78
2022-10-05T22:14:02.913Z,19.69
2022-10-05T22:16:33.642Z,19.58
2022-10-05T22:19:06.082Z,19.56
2022-10-05T22:21:37.991Z,19.51
2022-10-05T22:24:05.147Z,19.59
2022-10-05T22:26:32.698Z,19.57
2022-10-05T22:29:00.252Z,19.62
2022-10-05T22:31:27.207Z,19.55
2022-10-05T22:33:54.152Z,19.45
2022-10-05T22:36:22.431Z,19.42
2022-10-05T22:38:50.407Z,19.27
2022-10-05T22:41:18.443Z,19.25
2022-10-05T22:43:50.853Z,19.28
2022-10-05T22:46:18.202Z,19.19
2022-10-05T22:48:45.278Z,19.28
2022-10-05T22:51:12.146Z,19.26
2022-10-05T22:53:42.342Z,19.20
2022-10-05T22:56:11.656Z,19.25
2022-10-05T22:58:40.403Z,19.31
2022-10-05T23:01:12.514Z,19.29
2022-10-05T23:03:39.314Z,19.17
2022-10-05T23:06:12.449Z,19.19
2022-10-05T23:08:40.341Z,19.26
2022-10-05T23:11:15.477Z,19.26
2022-10-05T23:13:42.471Z,19.23
2022-10-05T23:16:18.195Z,19.33
2022-10-05T23:18:47.543Z,19.26
2022-10-05T23:21:14.936Z,19.21
2022-10-05T23:23:43.916Z,19.21
2022-10-05T23:26:11.600Z,19.17
2022-10-05T23:28:51.300Z,19.17
2022-10-05T23:31:23.465Z,19.15
2022-10-05T23:33:50.220Z,19.14
2022-10-05T23:36:24.001Z,19.12
2022-10-05T23:38:50.931Z,19.17
2022-10-05T23:41:21.105Z,19.11
2022-10-05T23:43:49.131Z,19.05
2022-10-05T23:46:17.711Z,19.10
2022-10-05T23:48:44.513Z,19.08
2022-10-05T23:51:13.068Z,19.08
2022-10-05T23:53:39.727Z,19.06
2022-10-05T23:56:06.673Z,19.09
2022-10-05T23:58:33.690Z,19.06
